Time;durP1;ratioP1;P1;durP2;ratioP2;P2;SDS_P1;SDS_P2;PMS_P1;PMS_P2;Temp;Humidity;BMP_temperature;BMP_pressure;BME280_temperature;BME280_humidity;BME280_pressure;Samples;Min_cycle;Max_cycle;Signal;HPM_P1;HPM_P2
2023/01/20 00:02:00;;;;;;;1.67;1.33;;;;;;;-146.25;100.00;57403.91;5072420;28;20260;-88
2023/01/20 00:04:29;;;;;;;0.33;0.33;;;;;;;-146.25;100.00;57403.91;5075555;28;20686;-87
2023/01/20 00:06:57;;;;;;;0.40;0.40;;;;;;;-146.25;100.00;57403.91;5074586;28;20214;-87
2023/01/20 00:09:30;;;;;;;0.00;0.00;;;;;;;-146.25;100.00;57403.91;5081586;28;20237;-87
2023/01/20 00:11:59;;;;;;;0.00;0.00;;;;;;;-146.25;100.00;57403.91;5084459;28;20248;-88
2023/01/20 00:14:37;;;;;;;0.00;0.00;;;;;;;-146.25;100.00;57403.91;5088336;28;20194;-89
2023/01/20 00:17:08;;;;;;;0.00;0.00;;;;;;;-146.25;100.00;57403.91;5087617;28;20194;-87
2023/01/20 00:19:37;;;;;;;0.00;0.00;;;;;;;-146.25;100.00;57403.91;5081313;28;20234;-90
2023/01/20 00:22:06;;;;;;;0.00;0.00;;;;;;;-146.25;100.00;57403.91;5084389;28;20213;-88
2023/01/20 00:24:35;;;;;;;0.00;0.00;;;;;;;-146.25;100.00;57403.91;5083748;28;20270;-87
2023/01/20 00:27:06;;;;;;;2.53;0.20;;;;;;;-146.25;100.00;57403.91;5075754;28;20654;-87
2023/01/20 00:29:36;;;;;;;0.00;0.00;;;;;;;-146.25;100.00;57403.91;5073956;28;20206;-88
2023/01/20 00:32:05;;;;;;;0.00;0.00;;;;;;;-146.25;100.00;57403.91;5073047;28;20195;-86
2023/01/20 00:34:32;;;;;;;0.17;0.17;;;;;;;-146.25;100.00;57403.91;5073390;28;20207;-87
2023/01/20 00:37:02;;;;;;;0.00;0.00;;;;;;;-146.25;100.00;57403.91;5073459;28;20230;-86
2023/01/20 00:39:29;;;;;;;0.07;0.00;;;;;;;-146.25;100.00;57403.91;5073394;28;20575;-86
2023/01/20 00:41:58;;;;;;;0.00;0.00;;;;;;;-146.25;100.00;57403.91;5071911;28;20195;-86
2023/01/20 00:44:26;;;;;;;0.00;0.00;;;;;;;-146.25;100.00;57403.91;5081890;28;20203;-86
2023/01/20 00:46:53;;;;;;;0.03;0.03;;;;;;;-146.25;100.00;57403.91;5075147;28;20652;-85
2023/01/20 00:49:23;;;;;;;0.00;0.00;;;;;;;-146.25;100.00;57403.91;5072492;28;20206;-86
2023/01/20 00:51:51;;;;;;;0.00;0.00;;;;;;;-146.25;100.00;57403.91;5073615;28;20204;-85
2023/01/20 00:54:20;;;;;;;0.00;0.00;;;;;;;-146.25;100.00;57403.91;5073957;28;20203;-87
2023/01/20 00:56:48;;;;;;;0.00;0.00;;;;;;;-146.25;100.00;57403.91;5072999;28;20209;-86
2023/01/20 00:59:16;;;;;;;0.00;0.00;;;;;;;-146.25;100.00;57403.91;5072919;28;20254;-87
2023/01/20 01:01:44;;;;;;;0.00;0.00;;;;;;;-146.25;100.00;57403.91;5072816;28;20220;-86
2023/01/20 01:04:12;;;;;;;0.00;0.00;;;;;;;-146.25;100.00;57403.91;5072964;28;20666;-86
2023/01/20 01:06:41;;;;;;;1.03;0.93;;;;;;;-146.25;100.00;57403.91;5071940;28;20254;-87
2023/01/20 01:09:11;;;;;;;0.00;0.00;;;;;;;-146.25;100.00;57403.91;5071755;28;20276;-86
2023/01/20 01:11:49;;;;;;;0.00;0.00;;;;;;;-146.25;100.00;57403.91;5072419;28;20267;-88
2023/01/20 01:14:17;;;;;;;0.03;0.03;;;;;;;-146.25;100.00;57403.91;5072085;28;20970;-88
2023/01/20 01:16:45;;;;;;;0.00;0.00;;;;;;;-146.25;100.00;57403.91;5071768;28;20206;-88
2023/01/20 01:19:13;;;;;;;0.40;0.40;;;;;;;-146.25;100.00;57403.91;5072496;28;20226;-87
2023/01/20 01:21:42;;;;;;;0.00;0.00;;;;;;;-146.25;100.00;57403.91;5071906;28;20254;-88
2023/01/20 01:24:09;;;;;;;0.00;0.00;;;;;;;-146.25;100.00;57403.91;5072626;28;20647;-86
2023/01/20 01:26:37;;;;;;;0.23;0.23;;;;;;;-146.25;100.00;57403.91;5073649;28;20199;-88
2023/01/20 01:29:11;;;;;;;0.00;0.00;;;;;;;-146.25;100.00;57403.91;5081767;28;20262;-88
2023/01/20 01:31:39;;;;;;;0.00;0.00;;;;;;;-146.25;100.00;57403.91;5080072;28;20635;-87
2023/01/20 01:34:07;;;;;;;0.03;0.03;;;;;;;-146.25;100.00;57403.91;5072354;28;20199;-89
2023/01/20 01:36:35;;;;;;;0.00;0.00;;;;;;;-146.25;100.00;57403.91;5072939;28;20631;-88
2023/01/20 01:39:06;;;;;;;0.97;0.13;;;;;;;-146.25;100.00;57403.91;5072329;28;20701;-88
2023/01/20 01:41:35;;;;;;;0.00;0.00;;;;;;;-146.25;100.00;57403.91;5072288;28;20205;-87
2023/01/20 01:44:08;;;;;;;0.00;0.00;;;;;;;-146.25;100.00;57403.91;5081303;28;20186;-88
2023/01/20 01:46:41;;;;;;;0.23;0.10;;;;;;;-146.25;100.00;57403.91;5087346;28;20191;-89
2023/01/20 01:49:14;;;;;;;0.00;0.00;;;;;;;-146.25;100.00;57403.91;5087485;28;20206;-87
2023/01/20 01:51:48;;;;;;;0.00;0.00;;;;;;;-146.25;100.00;57403.91;5087039;28;20584;-88
2023/01/20 01:54:20;;;;;;;0.00;0.00;;;;;;;-146.25;100.00;57403.91;5083618;28;20195;-88
2023/01/20 01:56:50;;;;;;;0.20;0.20;;;;;;;-146.25;100.00;57403.91;5061723;28;20269;-89
2023/01/20 01:59:19;;;;;;;0.00;0.00;;;;;;;-146.25;100.00;57403.91;5067900;28;20250;-90
2023/01/20 02:01:52;;;;;;;0.10;0.10;;;;;;;-146.25;100.00;57403.91;5067873;28;20341;-88
2023/01/20 02:04:22;;;;;;;0.00;0.00;;;;;;;-146.25;100.00;57403.91;5069009;28;20203;-88
2023/01/20 02:06:55;;;;;;;0.00;0.00;;;;;;;-146.25;100.00;57403.91;5067585;28;20213;-88
2023/01/20 02:09:25;;;;;;;0.03;0.03;;;;;;;-146.25;100.00;57403.91;5068768;28;20219;-88
2023/01/20 02:11:56;;;;;;;0.00;0.00;;;;;;;-146.25;100.00;57403.91;5059957;28;20209;-87
2023/01/20 02:14:29;;;;;;;0.13;0.10;;;;;;;-146.25;100.00;57403.91;5065378;28;20198;-88
2023/01/20 02:17:05;;;;;;;0.00;0.00;;;;;;;-146.25;100.00;57403.91;5052259;28;20199;-89
2023/01/20 02:20:08;;;;;;;0.83;0.20;;;;;;;-146.25;100.00;57403.91;5060992;28;20290;-87
2023/01/20 02:22:46;;;;;;;0.00;0.00;;;;;;;-146.25;100.00;57403.91;5058069;28;20663;-87
2023/01/20 02:25:43;;;;;;;0.20;0.20;;;;;;;-146.25;100.00;57403.91;5057631;28;20293;-89
2023/01/20 02:28:45;;;;;;;0.00;0.00;;;;;;;-146.25;100.00;57403.91;5072334;28;20226;-87
2023/01/20 02:31:45;;;;;;;0.10;0.10;;;;;;;-146.25;100.00;57403.91;5071595;28;20201;-88
2023/01/20 02:34:21;;;;;;;0.00;0.00;;;;;;;-146.25;100.00;57403.91;5058662;28;20229;-89
2023/01/20 02:36:53;;;;;;;1.20;0.60;;;;;;;-146.25;100.00;57403.91;5070592;28;20750;-89
2023/01/20 02:39:29;;;;;;;0.00;0.00;;;;;;;-146.25;100.00;57403.91;5071283;28;20237;-87
2023/01/20 02:42:17;;;;;;;0.00;0.00;;;;;;;-146.25;100.00;57403.91;5070801;28;20663;-88
2023/01/20 02:44:52;;;;;;;0.00;0.00;;;;;;;-146.25;100.00;57403.91;5070740;28;20202;-88
2023/01/20 02:47:27;;;;;;;0.00;0.00;;;;;;;-146.25;100.00;57403.91;5070096;28;20191;-90
2023/01/20 02:50:04;;;;;;;0.00;0.00;;;;;;;-146.25;100.00;57403.91;5070669;28;20221;-87
2023/01/20 02:52:38;;;;;;;0.10;0.10;;;;;;;-146.25;100.00;57403.91;5080566;28;20205;-88
2023/01/20 02:55:10;;;;;;;0.00;0.00;;;;;;;-146.25;100.00;57403.91;5075428;28;20198;-88
2023/01/20 02:57:46;;;;;;;0.00;0.00;;;;;;;-146.25;100.00;57403.91;5072096;28;20199;-88
2023/01/20 03:00:22;;;;;;;0.00;0.00;;;;;;;-146.25;100.00;57403.91;5078319;28;20234;-85
2023/01/20 03:02:53;;;;;;;0.00;0.00;;;;;;;-146.25;100.00;57403.91;5082786;28;20198;-87
2023/01/20 03:05:28;;;;;;;0.00;0.00;;;;;;;-146.25;100.00;57403.91;5083566;28;20255;-87
2023/01/20 03:08:01;;;;;;;0.10;0.10;;;;;;;-146.25;100.00;57403.91;5082403;28;20206;-88
2023/01/20 03:10:33;;;;;;;0.20;0.20;;;;;;;-146.25;100.00;57403.91;5079538;28;20229;-87
2023/01/20 03:13:14;;;;;;;0.20;0.20;;;;;;;-146.25;100.00;57403.91;5077056;28;20280;-88
2023/01/20 03:15:56;;;;;;;0.00;0.00;;;;;;;-146.25;100.00;57403.91;5070436;28;20555;-89
2023/01/20 03:18:29;;;;;;;1.20;0.97;;;;;;;-146.25;100.00;57403.91;5069772;28;20202;-89
2023/01/20 03:21:05;;;;;;;0.10;0.10;;;;;;;-146.25;100.00;57403.91;5071002;28;20222;-87
2023/01/20 03:23:42;;;;;;;0.30;0.30;;;;;;;-146.25;100.00;57403.91;5071761;28;20282;-89
2023/01/20 03:26:16;;;;;;;0.00;0.00;;;;;;;-146.25;100.00;57403.91;5071064;28;20206;-88
2023/01/20 03:28:47;;;;;;;0.00;0.00;;;;;;;-146.25;100.00;57403.91;5071364;28;20591;-87
2023/01/20 03:31:22;;;;;;;0.07;0.00;;;;;;;-146.25;100.00;57403.91;5070602;28;20232;-89
2023/01/20 03:33:53;;;;;;;0.00;0.00;;;;;;;-146.25;100.00;57403.91;5072198;28;20202;-89
2023/01/20 03:36:26;;;;;;;0.00;0.00;;;;;;;-146.25;100.00;57403.91;5071258;28;20229;-86
2023/01/20 03:38:57;;;;;;;0.00;0.00;;;;;;;-146.25;100.00;57403.91;5070032;28;20222;-88
2023/01/20 03:41:35;;;;;;;0.00;0.00;;;;;;;-146.25;100.00;57403.91;5069550;28;20207;-87
2023/01/20 03:44:12;;;;;;;0.00;0.00;;;;;;;-146.25;100.00;57403.91;5070765;28;20284;-88
2023/01/20 03:46:45;;;;;;;0.37;0.37;;;;;;;-146.25;100.00;57403.91;5069915;28;20262;-87
2023/01/20 03:49:20;;;;;;;0.00;0.00;;;;;;;-146.25;100.00;57403.91;5071543;28;20213;-87
2023/01/20 03:52:01;;;;;;;0.00;0.00;;;;;;;-146.25;100.00;57403.91;5071290;28;20210;-89
2023/01/20 03:54:38;;;;;;;0.10;0.10;;;;;;;-146.25;100.00;57403.91;5070288;28;20285;-86
2023/01/20 03:57:12;;;;;;;0.00;0.00;;;;;;;-146.25;100.00;57403.91;5071385;28;20294;-87
2023/01/20 03:59:44;;;;;;;0.00;0.00;;;;;;;-146.25;100.00;57403.91;5070993;28;20732;-89
2023/01/20 04:02:21;;;;;;;0.10;0.10;;;;;;;-146.25;100.00;57403.91;5072843;28;20183;-87
2023/01/20 04:04:50;;;;;;;0.30;0.10;;;;;;;-146.25;100.00;57403.91;5079509;28;20187;-87
2023/01/20 04:07:25;;;;;;;0.00;0.00;;;;;;;-146.25;100.00;57403.91;5081933;28;20210;-86
2023/01/20 04:10:35;;;;;;;0.00;0.00;;;;;;;-146.25;100.00;57403.91;5080513;28;20222;-87
2023/01/20 04:13:03;;;;;;;0.00;0.00;;;;;;;-146.25;100.00;57403.91;5069092;28;20827;-87
2023/01/20 04:15:39;;;;;;;0.20;0.10;;;;;;;-146.25;100.00;57403.91;5075763;28;20191;-88
2023/01/20 04:18:14;;;;;;;0.00;0.00;;;;;;;-146.25;100.00;57403.91;5075551;28;20225;-88
2023/01/20 04:20:43;;;;;;;0.00;0.00;;;;;;;-146.25;100.00;57403.91;5070541;28;20480;-86
2023/01/20 04:23:21;;;;;;;0.47;0.47;;;;;;;-146.25;100.00;57403.91;5067902;28;20277;-86
2023/01/20 04:25:49;;;;;;;0.10;0.10;;;;;;;-146.25;100.00;57403.91;5070173;28;20195;-86
2023/01/20 04:28:20;;;;;;;0.10;0.10;;;;;;;-146.25;100.00;57403.91;5072022;28;20472;-87
2023/01/20 04:30:49;;;;;;;11.10;2.77;;;;;;;-146.25;100.00;57403.91;5069492;28;20314;-87
2023/01/20 04:33:16;;;;;;;0.10;0.10;;;;;;;-146.25;100.00;57403.91;5068658;28;20226;-84
2023/01/20 04:35:44;;;;;;;0.00;0.00;;;;;;;-146.25;100.00;57403.91;5071859;28;20226;-88
2023/01/20 04:38:15;;;;;;;0.10;0.10;;;;;;;-146.25;100.00;57403.91;5074499;28;20203;-87
2023/01/20 04:40:43;;;;;;;1.03;0.53;;;;;;;-146.25;100.00;57403.91;5073727;28;20226;-87
2023/01/20 04:43:12;;;;;;;0.20;0.20;;;;;;;-146.25;100.00;57403.91;5070245;28;20244;-87
2023/01/20 04:45:43;;;;;;;0.07;0.07;;;;;;;-146.25;100.00;57403.91;5073510;28;20678;-87
2023/01/20 04:48:14;;;;;;;0.37;0.37;;;;;;;-146.25;100.00;57403.91;5073230;28;20221;-87
2023/01/20 04:50:46;;;;;;;1.57;1.30;;;;;;;-146.25;100.00;57403.91;5073111;28;20198;-88
2023/01/20 04:53:18;;;;;;;2.00;1.90;;;;;;;-146.25;100.00;57403.91;5072840;28;20232;-88
2023/01/20 04:55:46;;;;;;;1.23;1.23;;;;;;;-146.25;100.00;57403.91;5072623;28;20202;-88
2023/01/20 04:58:14;;;;;;;1.33;1.33;;;;;;;-146.25;100.00;57403.91;5072394;28;20187;-85
2023/01/20 05:00:46;;;;;;;2.17;2.10;;;;;;;-146.25;100.00;57403.91;5071533;28;20264;-87
2023/01/20 05:03:16;;;;;;;1.67;1.67;;;;;;;-146.25;100.00;57403.91;5072098;28;20191;-87
2023/01/20 05:05:46;;;;;;;3.60;3.50;;;;;;;-146.25;100.00;57403.91;5072308;28;20202;-86
2023/01/20 05:08:16;;;;;;;6.90;4.43;;;;;;;-146.25;100.00;57403.91;5071779;28;20275;-87
2023/01/20 05:10:45;;;;;;;2.03;1.33;;;;;;;-146.25;100.00;57403.91;5071472;28;20220;-87
2023/01/20 05:13:14;;;;;;;0.67;0.67;;;;;;;-146.25;100.00;57403.91;5072451;28;20210;-88
2023/01/20 05:15:45;;;;;;;0.33;0.33;;;;;;;-146.25;100.00;57403.91;5071522;28;20199;-87
2023/01/20 05:18:15;;;;;;;0.38;0.38;;;;;;;-146.25;100.00;57403.91;5073006;28;20444;-87
2023/01/20 05:20:45;;;;;;;0.20;0.20;;;;;;;-146.25;100.00;57403.91;5072075;28;20766;-88
2023/01/20 05:23:13;;;;;;;0.40;0.40;;;;;;;-146.25;100.00;57403.91;5070768;28;20686;-87
2023/01/20 05:25:42;;;;;;;1.97;1.17;;;;;;;-146.25;100.00;57403.91;5072179;28;20752;-88
2023/01/20 05:28:16;;;;;;;1.10;0.77;;;;;;;-146.25;100.00;57403.91;5072904;28;20209;-86
2023/01/20 05:30:47;;;;;;;1.27;1.27;;;;;;;-146.25;100.00;57403.91;5072304;28;20213;-88
2023/01/20 05:33:15;;;;;;;0.23;0.23;;;;;;;-146.25;100.00;57403.91;5082428;28;20198;-88
2023/01/20 05:35:44;;;;;;;3.00;1.50;;;;;;;-146.25;100.00;57403.91;5075592;28;20234;-87
2023/01/20 05:38:11;;;;;;;1.47;0.53;;;;;;;-146.25;100.00;57403.91;5072104;28;20202;-88
2023/01/20 05:40:42;;;;;;;1.23;0.57;;;;;;;-146.25;100.00;57403.91;5072477;28;20234;-87
2023/01/20 05:43:13;;;;;;;1.07;1.07;;;;;;;-146.25;100.00;57403.91;5074503;28;20213;-88
2023/01/20 05:45:42;;;;;;;1.77;0.97;;;;;;;-146.25;100.00;57403.91;5072323;28;20583;-88
2023/01/20 05:48:11;;;;;;;0.67;0.30;;;;;;;-146.25;100.00;57403.91;5075461;28;20260;-87
2023/01/20 05:50:39;;;;;;;0.23;0.23;;;;;;;-146.25;100.00;57403.91;5071757;28;20206;-87
2023/01/20 05:53:06;;;;;;;0.03;0.03;;;;;;;-146.25;100.00;57403.91;5070603;28;20714;-87
2023/01/20 05:55:35;;;;;;;0.20;0.20;;;;;;;-146.25;100.00;57403.91;5067664;28;20457;-85
2023/01/20 05:58:04;;;;;;;0.10;0.10;;;;;;;-146.25;100.00;57403.91;5079101;28;20207;-85
2023/01/20 06:00:34;;;;;;;0.63;0.63;;;;;;;-146.25;100.00;57403.91;5072941;28;20343;-87
2023/01/20 06:03:02;;;;;;;0.20;0.20;;;;;;;-146.25;100.00;57403.91;5072736;28;20237;-87
2023/01/20 06:05:30;;;;;;;0.10;0.10;;;;;;;-146.25;100.00;57403.91;5083882;28;20325;-88
2023/01/20 06:07:59;;;;;;;0.43;0.43;;;;;;;-146.25;100.00;57403.91;5081492;28;20198;-86
2023/01/20 06:10:28;;;;;;;0.80;0.77;;;;;;;-146.25;100.00;57403.91;5080917;28;20223;-88
2023/01/20 06:12:56;;;;;;;0.50;0.50;;;;;;;-146.25;100.00;57403.91;5064123;28;20214;-85
2023/01/20 06:15:26;;;;;;;0.40;0.40;;;;;;;-146.25;100.00;57403.91;5073055;28;20222;-86
2023/01/20 06:18:03;;;;;;;0.13;0.13;;;;;;;-146.25;100.00;57403.91;5075605;28;20206;-86
2023/01/20 06:20:36;;;;;;;0.40;0.40;;;;;;;-146.25;100.00;57403.91;5076621;28;20230;-87
2023/01/20 06:23:31;;;;;;;0.10;0.10;;;;;;;-146.25;100.00;57403.91;5075968;28;20210;-87
2023/01/20 06:26:00;;;;;;;0.43;0.43;;;;;;;-146.25;100.00;57403.91;5050011;28;20234;-87
2023/01/20 06:28:28;;;;;;;0.10;0.10;;;;;;;-146.25;100.00;57403.91;5070875;28;20698;-86
2023/01/20 06:31:03;;;;;;;0.40;0.40;;;;;;;-146.25;100.00;57403.91;5076975;28;20289;-86
2023/01/20 06:33:37;;;;;;;0.43;0.43;;;;;;;-146.25;100.00;57403.91;5073485;28;20399;-87
2023/01/20 06:36:16;;;;;;;0.30;0.30;;;;;;;-146.25;100.00;57403.91;5071121;28;20242;-88
2023/01/20 06:38:49;;;;;;;0.30;0.30;;;;;;;-146.25;100.00;57403.91;5070711;28;20464;-88
2023/01/20 06:41:19;;;;;;;0.07;0.07;;;;;;;-146.25;100.00;57403.91;5071024;28;20365;-89
2023/01/20 06:43:49;;;;;;;1.70;0.30;;;;;;;-146.25;100.00;57403.91;5072087;28;20214;-89
2023/01/20 06:46:17;;;;;;;0.20;0.20;;;;;;;-146.25;100.00;57403.91;5072820;28;20218;-89
2023/01/20 06:48:47;;;;;;;0.30;0.30;;;;;;;-146.25;100.00;57403.91;5061344;28;20637;-90
2023/01/20 06:51:18;;;;;;;0.10;0.10;;;;;;;-146.25;100.00;57403.91;5074538;28;20666;-89
2023/01/20 06:53:47;;;;;;;0.60;0.60;;;;;;;-146.25;100.00;57403.91;5074262;28;20614;-90
2023/01/20 06:56:16;;;;;;;1.03;0.17;;;;;;;-146.25;100.00;57403.91;5072296;28;20587;-90
2023/01/20 06:58:45;;;;;;;0.77;0.77;;;;;;;-146.25;100.00;57403.91;5072560;28;20588;-89
2023/01/20 07:01:18;;;;;;;0.10;0.07;;;;;;;-146.25;100.00;57403.91;5071552;28;20238;-91
2023/01/20 07:03:48;;;;;;;0.50;0.47;;;;;;;-146.25;100.00;57403.91;5070832;28;20230;-88
2023/01/20 07:06:21;;;;;;;0.23;0.23;;;;;;;-146.25;100.00;57403.91;5073617;28;20227;-87
2023/01/20 07:08:58;;;;;;;0.20;0.20;;;;;;;-146.25;100.00;57403.91;5070943;28;20278;-86
2023/01/20 07:11:30;;;;;;;0.10;0.10;;;;;;;-146.25;100.00;57403.91;5075065;28;20210;-86
2023/01/20 07:14:01;;;;;;;0.10;0.10;;;;;;;-146.25;100.00;57403.91;5072733;28;20251;-87
2023/01/20 07:16:29;;;;;;;0.00;0.00;;;;;;;-146.25;100.00;57403.91;5070376;28;20202;-87
2023/01/20 07:18:58;;;;;;;0.00;0.00;;;;;;;-146.25;100.00;57403.91;5072840;28;20663;-88
2023/01/20 07:21:29;;;;;;;0.07;0.07;;;;;;;-146.25;100.00;57403.91;5070022;28;20301;-87
2023/01/20 07:24:00;;;;;;;2.37;0.33;;;;;;;-146.25;100.00;57403.91;5069538;28;20651;-86
2023/01/20 07:26:32;;;;;;;1.03;0.63;;;;;;;-146.25;100.00;57403.91;5076466;28;20273;-88
2023/01/20 07:29:01;;;;;;;0.20;0.20;;;;;;;-146.25;100.00;57403.91;5073665;28;20202;-88
2023/01/20 07:31:33;;;;;;;0.10;0.10;;;;;;;-146.25;100.00;57403.91;5071903;28;20236;-87
2023/01/20 07:34:05;;;;;;;0.30;0.30;;;;;;;-146.25;100.00;57403.91;5073140;28;20233;-88
2023/01/20 07:36:33;;;;;;;0.37;0.37;;;;;;;-146.25;100.00;57403.91;5073098;28;20230;-88
2023/01/20 07:39:02;;;;;;;0.30;0.30;;;;;;;-146.25;100.00;57403.91;5071209;28;20217;-88
2023/01/20 07:41:30;;;;;;;0.10;0.10;;;;;;;-146.25;100.00;57403.91;5070484;28;20226;-87
2023/01/20 07:44:04;;;;;;;0.10;0.10;;;;;;;-146.25;100.00;57403.91;5072727;28;20218;-88
2023/01/20 07:46:33;;;;;;;0.00;0.00;;;;;;;-146.25;100.00;57403.91;5074212;28;20195;-89
2023/01/20 07:49:14;;;;;;;0.10;0.10;;;;;;;-146.25;100.00;57403.91;5073634;28;20286;-90
2023/01/20 07:51:54;;;;;;;0.03;0.03;;;;;;;-146.25;100.00;57403.91;5072617;28;20193;-91
2023/01/20 07:54:30;;;;;;;0.00;0.00;;;;;;;-146.25;100.00;57403.91;5072331;28;20228;-90
2023/01/20 07:56:58;;;;;;;0.07;0.07;;;;;;;-146.25;100.00;57403.91;5070637;28;20198;-90
2023/01/20 07:59:27;;;;;;;1.93;1.80;;;;;;;-146.25;100.00;57403.91;5068990;28;20207;-90
2023/01/20 08:02:01;;;;;;;0.10;0.10;;;;;;;-146.25;100.00;57403.91;5050555;28;20746;-90
2023/01/20 08:04:30;;;;;;;0.10;0.10;;;;;;;-146.25;100.00;57403.91;5050814;28;20227;-89
2023/01/20 08:07:01;;;;;;;0.43;0.43;;;;;;;-146.25;100.00;57403.91;5064296;28;20242;-88
2023/01/20 08:09:32;;;;;;;0.23;0.23;;;;;;;-146.25;100.00;57403.91;5058618;28;20238;-89
2023/01/20 08:12:09;;;;;;;0.13;0.13;;;;;;;-146.25;100.00;57403.91;5060999;28;20230;-92
2023/01/20 08:14:37;;;;;;;0.93;0.93;;;;;;;-146.25;100.00;57403.91;5053639;28;20215;-87
2023/01/20 08:17:09;;;;;;;0.00;0.00;;;;;;;-146.25;100.00;57403.91;5052696;28;20302;-90
2023/01/20 08:19:40;;;;;;;0.10;0.10;;;;;;;-146.25;100.00;57403.91;5054259;28;20600;-89
2023/01/20 08:22:10;;;;;;;0.20;0.20;;;;;;;-146.25;100.00;57403.91;5057277;28;20245;-88
2023/01/20 08:24:39;;;;;;;0.20;0.20;;;;;;;-146.25;100.00;57403.91;5058624;28;20231;-87
2023/01/20 08:27:17;;;;;;;0.73;0.40;;;;;;;-146.25;100.00;57403.91;5056235;28;20211;-88
2023/01/20 08:29:44;;;;;;;0.20;0.20;;;;;;;-146.25;100.00;57403.91;5057424;28;20235;-89
2023/01/20 08:32:14;;;;;;;0.90;0.90;;;;;;;-146.25;100.00;57403.91;5055135;28;20215;-88
2023/01/20 08:34:49;;;;;;;0.10;0.10;;;;;;;-146.25;100.00;57403.91;5054277;28;20234;-87
2023/01/20 08:37:23;;;;;;;0.20;0.20;;;;;;;-146.25;100.00;57403.91;5054374;28;20457;-88
2023/01/20 08:39:52;;;;;;;0.00;0.00;;;;;;;-146.25;100.00;57403.91;5060302;28;20219;-87
2023/01/20 08:42:29;;;;;;;0.13;0.13;;;;;;;-146.25;100.00;57403.91;5055630;28;20235;-89
2023/01/20 08:45:04;;;;;;;0.00;0.00;;;;;;;-146.25;100.00;57403.91;5052398;28;20706;-90
2023/01/20 08:47:36;;;;;;;0.10;0.10;;;;;;;-146.25;100.00;57403.91;5053270;28;20253;-89
2023/01/20 08:50:28;;;;;;;0.10;0.10;;;;;;;-146.25;100.00;57403.91;5048579;28;20478;-88
2023/01/20 08:53:01;;;;;;;0.10;0.10;;;;;;;-146.25;100.00;57403.91;5057582;28;20323;-90
2023/01/20 08:55:33;;;;;;;0.00;0.00;;;;;;;-146.25;100.00;57403.91;5070203;28;20305;-90
2023/01/20 08:58:06;;;;;;;0.13;0.13;;;;;;;-146.25;100.00;57403.91;5073193;28;20332;-89
2023/01/20 09:00:44;;;;;;;0.00;0.00;;;;;;;-146.25;100.00;57403.91;5072772;28;20733;-90
2023/01/20 09:03:15;;;;;;;1.90;1.60;;;;;;;-146.25;100.00;57403.91;5086633;28;20226;-89
2023/01/20 09:05:58;;;;;;;0.00;0.00;;;;;;;-146.25;100.00;57403.91;5076376;28;20239;-92
2023/01/20 09:08:30;;;;;;;0.40;0.40;;;;;;;-146.25;100.00;57403.91;5073826;28;20288;-90
2023/01/20 09:11:27;;;;;;;0.30;0.30;;;;;;;-146.25;100.00;57403.91;5073077;28;20238;-92
2023/01/20 09:14:05;;;;;;;0.60;0.57;;;;;;;-146.25;100.00;57403.91;5073341;28;20231;-93
2023/01/20 09:16:49;;;;;;;0.40;0.40;;;;;;;-146.25;100.00;57403.91;5074791;28;20678;-93
2023/01/20 09:19:34;;;;;;;0.40;0.40;;;;;;;-146.25;100.00;57403.91;5075513;28;20227;-92
2023/01/20 09:22:38;;;;;;;0.10;0.10;;;;;;;-146.25;100.00;57403.91;5078521;28;20241;-92
2023/01/20 09:25:25;;;;;;;0.10;0.10;;;;;;;-146.25;100.00;57403.91;5084711;28;20233;-91
2023/01/20 09:28:03;;;;;;;0.17;0.17;;;;;;;-146.25;100.00;57403.91;5088786;28;20249;-92
2023/01/20 09:31:18;;;;;;;0.40;0.40;;;;;;;-146.25;100.00;57403.91;5080745;28;20228;-93
2023/01/20 09:47:18;;;;;;;0.20;0.20;;;;;;;-146.25;100.00;57403.91;5080797;28;20237;-89
2023/01/20 09:53:24;;;;;;;;;;;;;;;;;;;;;
2023/01/20 09:56:36;;;;;;;0.53;0.50;;;;;;;-146.25;100.00;57403.91;5076272;28;20234;-89
2023/01/20 09:59:24;;;;;;;0.13;0.13;;;;;;;-146.25;100.00;57403.91;5075012;28;20305;-90
2023/01/20 10:02:12;;;;;;;0.20;0.20;;;;;;;-146.25;100.00;57403.91;5079795;28;20276;-90
2023/01/20 10:05:05;;;;;;;0.00;0.00;;;;;;;-146.25;100.00;57403.91;5078909;28;20278;-90
2023/01/20 10:07:50;;;;;;;0.00;0.00;;;;;;;-146.25;100.00;57403.91;5088302;28;20214;-89
2023/01/20 10:10:55;;;;;;;0.00;0.00;;;;;;;-146.25;100.00;57403.91;5079197;28;20214;-91
2023/01/20 10:14:00;;;;;;;;;;;;;;;;;;;;;
2023/01/20 10:22:48;;;;;;;0.00;0.00;;;;;;;-146.25;100.00;57403.91;5083366;28;20284;-91
2023/01/20 10:25:41;;;;;;;0.20;0.20;;;;;;;-146.25;100.00;57403.91;5086221;28;20688;-91
2023/01/20 10:31:49;;;;;;;0.00;0.00;;;;;;;-146.25;100.00;57403.91;5084116;28;20226;-93
2023/01/20 10:37:54;;;;;;;0.10;0.10;;;;;;;-146.25;100.00;57403.91;5076886;28;20242;-91
2023/01/20 10:40:42;;;;;;;0.90;0.90;;;;;;;-146.25;100.00;57403.91;5077136;28;20694;-92
2023/01/20 10:43:29;;;;;;;0.33;0.27;;;;;;;-146.25;100.00;57403.91;5078070;28;20244;-91
2023/01/20 10:46:31;;;;;;;0.70;0.70;;;;;;;-146.25;100.00;57403.91;5078542;28;20294;-93
2023/01/20 10:52:54;;;;;;;0.20;0.20;;;;;;;-146.25;100.00;57403.91;5041614;28;20254;-91
2023/01/20 10:55:48;;;;;;;0.40;0.40;;;;;;;-146.25;100.00;57403.91;5076500;28;20223;-90
2023/01/20 10:58:37;;;;;;;1.23;0.37;;;;;;;-146.25;100.00;57403.91;5075708;28;20214;-91
2023/01/20 11:01:17;;;;;;;0.57;0.50;;;;;;;-146.25;100.00;57403.91;5074849;28;20230;-92
2023/01/20 11:03:58;;;;;;;0.53;0.53;;;;;;;-146.25;100.00;57403.91;5072227;28;20215;-91
2023/01/20 11:06:38;;;;;;;0.97;0.97;;;;;;;-146.25;100.00;57403.91;5072997;28;20659;-90
2023/01/20 11:09:41;;;;;;;0.10;0.10;;;;;;;-146.25;100.00;57403.91;5078419;28;20237;-90
2023/01/20 11:12:20;;;;;;;0.30;0.30;;;;;;;-146.25;100.00;57403.91;5051721;28;20556;-90
2023/01/20 11:17:50;;;;;;;0.43;0.30;;;;;;;-146.25;100.00;57403.91;5049099;28;20253;-90
2023/01/20 11:20:26;;;;;;;0.17;0.17;;;;;;;-146.25;100.00;57403.91;5052467;28;20273;-91
2023/01/20 11:23:08;;;;;;;0.10;0.10;;;;;;;-146.25;100.00;57403.91;5048952;28;20307;-88
2023/01/20 11:25:37;;;;;;;0.73;0.73;;;;;;;-146.25;100.00;57403.91;5069438;28;20226;-88
2023/01/20 11:28:22;;;;;;;0.03;0.03;;;;;;;-146.25;100.00;57403.91;5072259;28;20763;-90
2023/01/20 11:30:55;;;;;;;0.10;0.10;;;;;;;-146.25;100.00;57403.91;5073152;28;20659;-90
2023/01/20 11:33:27;;;;;;;0.10;0.10;;;;;;;-146.25;100.00;57403.91;5072519;28;20225;-90
2023/01/20 11:36:22;;;;;;;1.53;0.27;;;;;;;-146.25;100.00;57403.91;5074851;28;20257;-90
2023/01/20 11:39:07;;;;;;;0.10;0.10;;;;;;;-146.25;100.00;57403.91;5070413;28;20218;-89
2023/01/20 11:41:56;;;;;;;;;;;;;;;;;;;;;
2023/01/20 11:44:55;;;;;;;;;;;;;;;;;;;;;
2023/01/20 11:47:59;;;;;;;0.00;0.00;;;;;;;-146.25;100.00;57403.91;5072988;28;20222;-91
2023/01/20 11:50:43;;;;;;;0.10;0.10;;;;;;;-146.25;100.00;57403.91;5074008;28;20225;-91
2023/01/20 11:53:48;;;;;;;0.10;0.10;;;;;;;-146.25;100.00;57403.91;5079169;28;20222;-92
2023/01/20 11:57:07;;;;;;;;;;;;;;;;;;;;;
2023/01/20 12:00:02;;;;;;;0.00;0.00;;;;;;;-146.25;100.00;57403.91;5014863;28;20232;-92
2023/01/20 12:02:37;;;;;;;0.00;0.00;;;;;;;-146.25;100.00;57403.91;5025484;28;20343;-91
2023/01/20 12:08:47;;;;;;;0.77;0.20;;;;;;;-146.25;100.00;57403.91;5054135;28;20223;-91
2023/01/20 12:11:44;;;;;;;0.10;0.10;;;;;;;-146.25;100.00;57403.91;5055781;28;20230;-92
2023/01/20 12:14:34;;;;;;;0.00;0.00;;;;;;;-146.25;100.00;57403.91;5053887;28;20715;-89
2023/01/20 12:17:39;;;;;;;;;;;;;;;;;;;;;
2023/01/20 12:20:19;;;;;;;0.00;0.00;;;;;;;-146.25;100.00;57403.91;5054776;28;20234;-89
2023/01/20 12:23:08;;;;;;;0.20;0.20;;;;;;;-146.25;100.00;57403.91;5053879;28;20321;-89
2023/01/20 12:26:04;;;;;;;0.10;0.10;;;;;;;-146.25;100.00;57403.91;5072095;28;20226;-89
2023/01/20 12:28:41;;;;;;;0.00;0.00;;;;;;;-146.25;100.00;57403.91;5074181;28;20714;-91
2023/01/20 12:31:16;;;;;;;0.40;0.40;;;;;;;-146.25;100.00;57403.91;5072928;28;20222;-88
2023/01/20 12:33:50;;;;;;;0.17;0.17;;;;;;;-146.25;100.00;57403.91;5074217;28;20751;-89
2023/01/20 12:36:33;;;;;;;0.20;0.20;;;;;;;-146.25;100.00;57403.91;5074353;28;20241;-86